Time;durP1;ratioP1;P1;durP2;ratioP2;P2;SDS_P1;SDS_P2;PMS_P1;PMS_P2;Temp;Humidity;BMP_temperature;BMP_pressure;BME280_temperature;BME280_humidity;BME280_pressure;Samples;Min_cycle;Max_cycle;Signal;HPM_P1;HPM_P2
2022/01/06 00:05:00;;;;;;;1.57;0.50;;;17.50;64.90;;;;;;10407457;28;20214;-63
2022/01/06 00:10:23;;;;;;;1.00;0.50;;;17.50;64.90;;;;;;10413215;28;20220;-63
2022/01/06 00:16:02;;;;;;;1.13;0.63;;;17.50;64.80;;;;;;10412735;28;20283;-63
2022/01/06 00:27:04;;;;;;;0.80;0.50;;;17.50;64.90;;;;;;10410947;28;20240;-63
2022/01/06 00:32:28;;;;;;;2.23;0.60;;;17.50;64.80;;;;;;10412303;28;20217;-63
2022/01/06 00:37:50;;;;;;;1.37;0.40;;;17.50;64.70;;;;;;10411573;28;20209;-63
2022/01/06 00:43:12;;;;;;;2.50;0.53;;;17.50;64.60;;;;;;10412662;28;20210;-64
2022/01/06 00:48:36;;;;;;;1.80;0.50;;;17.50;64.70;;;;;;10412694;28;20221;-63
2022/01/06 00:53:58;;;;;;;1.17;0.63;;;17.50;64.60;;;;;;10411447;28;20213;-64
2022/01/06 00:59:20;;;;;;;1.40;0.67;;;17.50;64.60;;;;;;10411549;28;20319;-63
2022/01/06 01:04:44;;;;;;;1.90;0.70;;;17.50;64.70;;;;;;10371748;28;20210;-63
2022/01/06 01:10:07;;;;;;;1.13;0.70;;;17.50;64.60;;;;;;10370278;28;20222;-63
2022/01/06 01:15:31;;;;;;;1.20;0.40;;;17.50;64.60;;;;;;10404563;28;20190;-63
2022/01/06 01:20:55;;;;;;;0.50;0.40;;;17.50;64.60;;;;;;10371167;28;20599;-63
2022/01/06 01:26:17;;;;;;;1.43;0.70;;;17.50;64.50;;;;;;10370243;28;20218;-64
2022/01/06 01:31:44;;;;;;;0.50;0.33;;;17.50;64.60;;;;;;10369775;28;20214;-63
2022/01/06 01:37:07;;;;;;;0.87;0.67;;;17.50;64.60;;;;;;10370847;28;20193;-64
2022/01/06 01:42:30;;;;;;;0.70;0.50;;;17.50;64.50;;;;;;10400571;28;20230;-63
2022/01/06 01:47:52;;;;;;;0.80;0.60;;;17.50;64.60;;;;;;10410880;28;20213;-64
2022/01/06 01:53:15;;;;;;;0.73;0.50;;;17.50;64.60;;;;;;10405800;28;20209;-63
2022/01/06 01:58:39;;;;;;;0.77;0.47;;;17.50;64.60;;;;;;10409166;28;20218;-64
2022/01/06 02:04:02;;;;;;;0.87;0.50;;;17.50;64.60;;;;;;10408358;28;20587;-63
2022/01/06 02:09:25;;;;;;;1.30;0.53;;;17.50;65.30;;;;;;10409402;28;20232;-63
2022/01/06 02:14:47;;;;;;;0.77;0.50;;;17.50;64.60;;;;;;10410542;28;20694;-63
2022/01/06 02:20:13;;;;;;;1.47;0.50;;;17.50;64.60;;;;;;10409211;28;20224;-63
2022/01/06 02:25:36;;;;;;;1.43;0.60;;;17.50;64.50;;;;;;10409017;28;20213;-63
2022/01/06 02:30:58;;;;;;;0.70;0.50;;;17.50;64.50;;;;;;10407836;28;20606;-64
2022/01/06 02:36:22;;;;;;;1.00;0.50;;;17.50;64.50;;;;;;10408571;28;20607;-63
2022/01/06 02:41:44;;;;;;;2.30;0.60;;;17.50;64.50;;;;;;10408098;28;20572;-63
2022/01/06 02:47:07;;;;;;;1.33;0.70;;;17.50;64.60;;;;;;10408531;28;20217;-64
2022/01/06 02:52:30;;;;;;;1.17;0.43;;;17.50;64.50;;;;;;10384453;28;20221;-64
2022/01/06 02:57:52;;;;;;;1.10;0.40;;;17.50;64.50;;;;;;10379347;28;20652;-63
2022/01/06 03:03:15;;;;;;;1.60;0.57;;;17.50;64.50;;;;;;10417048;28;20208;-63
2022/01/06 03:08:38;;;;;;;0.87;0.50;;;17.40;64.40;;;;;;10416046;28;20221;-64
2022/01/06 03:14:02;;;;;;;1.30;0.83;;;17.50;64.40;;;;;;10399002;28;20202;-64
2022/01/06 03:19:24;;;;;;;0.93;0.20;;;17.40;64.40;;;;;;10415510;28;20233;-63
2022/01/06 03:24:47;;;;;;;1.17;0.60;;;17.50;64.50;;;;;;10416958;28;20216;-63
2022/01/06 03:30:11;;;;;;;1.30;0.50;;;17.50;64.40;;;;;;10414752;28;20222;-64
2022/01/06 03:35:34;;;;;;;0.60;0.40;;;17.40;64.40;;;;;;10415201;28;20193;-63
2022/01/06 03:40:57;;;;;;;1.60;0.60;;;17.40;64.40;;;;;;10414718;28;20225;-64
2022/01/06 03:46:19;;;;;;;1.07;0.60;;;17.40;64.90;;;;;;10374478;28;20214;-63
2022/01/06 03:51:41;;;;;;;1.13;0.40;;;17.40;64.30;;;;;;10374857;28;20580;-63
2022/01/06 03:57:05;;;;;;;1.40;0.57;;;17.40;64.30;;;;;;10373890;28;20675;-63
2022/01/06 04:02:27;;;;;;;0.67;0.40;;;17.40;64.30;;;;;;10387679;28;20608;-63
2022/01/06 04:07:50;;;;;;;2.37;0.77;;;17.40;64.20;;;;;;10383993;28;20933;-63
2022/01/06 04:13:13;;;;;;;1.27;0.50;;;17.40;64.20;;;;;;10413827;28;20209;-63
2022/01/06 04:18:35;;;;;;;1.20;0.40;;;17.40;64.20;;;;;;10414089;28;20583;-62
2022/01/06 04:23:58;;;;;;;0.80;0.40;;;17.40;64.20;;;;;;10414852;28;20221;-63
2022/01/06 04:29:21;;;;;;;1.33;0.57;;;17.40;64.20;;;;;;10413136;28;20233;-62
2022/01/06 04:34:43;;;;;;;1.00;0.50;;;17.40;64.30;;;;;;10405005;28;20202;-63
2022/01/06 04:40:07;;;;;;;0.97;0.40;;;17.40;64.20;;;;;;10378489;28;20225;-63
2022/01/06 04:45:31;;;;;;;1.87;0.40;;;17.40;64.20;;;;;;10448404;22;20221;-71
2022/01/06 04:50:53;;;;;;;0.73;0.47;;;17.40;64.20;;;;;;10425216;28;20224;-71
2022/01/06 04:56:15;;;;;;;1.70;0.50;;;17.50;64.20;;;;;;10373202;28;20533;-70
2022/01/06 05:01:39;;;;;;;0.70;0.40;;;17.40;64.20;;;;;;10397726;28;20224;-71
2022/01/06 05:07:01;;;;;;;1.47;0.50;;;17.50;64.20;;;;;;10411922;28;20221;-71
2022/01/06 05:12:23;;;;;;;1.30;0.57;;;17.50;64.20;;;;;;10444622;28;20705;-71
2022/01/06 05:17:47;;;;;;;0.93;0.40;;;17.50;64.20;;;;;;10437282;28;20648;-72
2022/01/06 05:23:10;;;;;;;1.23;0.60;;;17.50;64.20;;;;;;10412308;28;20202;-70
2022/01/06 05:28:32;;;;;;;0.77;0.50;;;17.40;64.10;;;;;;10382418;28;20304;-72
2022/01/06 05:33:55;;;;;;;1.50;0.50;;;17.50;64.20;;;;;;10371136;28;20576;-71
2022/01/06 05:39:17;;;;;;;1.43;0.53;;;17.50;64.10;;;;;;10375563;28;20209;-72
2022/01/06 05:44:40;;;;;;;0.50;0.40;;;17.50;64.20;;;;;;10411284;28;20217;-72
2022/01/06 05:50:05;;;;;;;0.70;0.40;;;17.50;64.10;;;;;;10411428;28;20217;-70
2022/01/06 05:55:27;;;;;;;2.50;0.63;;;17.50;64.20;;;;;;10411810;28;20193;-72
2022/01/06 06:00:50;;;;;;;1.90;0.60;;;17.50;64.20;;;;;;10410276;28;20244;-70
2022/01/06 06:06:14;;;;;;;2.27;0.60;;;17.50;64.20;;;;;;10409311;28;20270;-71
2022/01/06 06:11:36;;;;;;;0.63;0.40;;;17.50;64.10;;;;;;10409915;28;20221;-70
2022/01/06 06:16:58;;;;;;;1.87;0.60;;;17.50;64.10;;;;;;10409509;28;20197;-70
2022/01/06 06:22:22;;;;;;;1.07;0.50;;;17.50;64.10;;;;;;10410186;28;20578;-69
2022/01/06 06:27:44;;;;;;;1.93;0.70;;;17.50;64.20;;;;;;10409280;28;20695;-71
2022/01/06 06:33:06;;;;;;;1.70;0.60;;;17.50;64.20;;;;;;10409017;28;20220;-71
2022/01/06 06:38:29;;;;;;;1.60;0.50;;;17.50;64.20;;;;;;10400718;28;20222;-70
2022/01/06 06:43:51;;;;;;;0.73;0.37;;;17.40;64.10;;;;;;10406629;28;20213;-68
2022/01/06 06:49:13;;;;;;;1.53;0.53;;;17.40;64.10;;;;;;10372223;28;20224;-71
2022/01/06 06:54:37;;;;;;;1.07;0.50;;;17.40;64.10;;;;;;10408773;28;20198;-70
2022/01/06 07:00:03;;;;;;;1.13;0.47;;;17.50;64.10;;;;;;10408577;28;20214;-71
2022/01/06 07:05:26;;;;;;;1.40;0.70;;;17.50;64.10;;;;;;10408277;28;20300;-70
2022/01/06 07:10:49;;;;;;;1.20;0.67;;;17.50;64.10;;;;;;10407208;28;20228;-70
2022/01/06 07:16:11;;;;;;;1.00;0.60;;;17.50;64.10;;;;;;10406996;28;20201;-70
2022/01/06 07:21:34;;;;;;;1.73;0.93;;;17.40;64.00;;;;;;10406044;28;20280;-70
2022/01/06 07:26:57;;;;;;;0.93;0.60;;;17.50;64.00;;;;;;10389284;28;20214;-71
2022/01/06 07:32:19;;;;;;;1.63;0.70;;;17.50;64.20;;;;;;10399452;28;20233;-71
2022/01/06 07:37:41;;;;;;;0.97;0.43;;;17.50;64.10;;;;;;10396879;28;20663;-71
2022/01/06 07:43:06;;;;;;;1.73;0.70;;;17.50;64.10;;;;;;10408525;28;20209;-71
2022/01/06 07:48:47;;;;;;;1.43;0.60;;;17.50;64.20;;;;;;10410898;28;20224;-70
2022/01/06 07:54:09;;;;;;;2.00;0.80;;;17.50;64.20;;;;;;10409117;28;20200;-70
2022/01/06 07:59:32;;;;;;;2.43;0.70;;;17.50;64.50;;;;;;10412992;28;20221;-70
2022/01/06 08:04:55;;;;;;;1.63;0.87;;;17.50;64.50;;;;;;10404598;28;20568;-70
2022/01/06 08:10:17;;;;;;;0.90;0.70;;;17.50;64.30;;;;;;10406640;28;20221;-69
2022/01/06 08:15:41;;;;;;;1.00;0.60;;;17.50;64.10;;;;;;10407616;28;20193;-69
2022/01/06 08:21:03;;;;;;;1.43;0.80;;;17.50;64.80;;;;;;10401276;28;20695;-70
2022/01/06 08:26:25;;;;;;;1.83;0.90;;;17.60;65.20;;;;;;10402511;28;20717;-70
2022/01/06 08:31:49;;;;;;;2.57;0.83;;;17.50;64.30;;;;;;10404767;28;20233;-70
2022/01/06 08:37:11;;;;;;;2.27;0.97;;;17.50;63.40;;;;;;10404963;28;20213;-70
2022/01/06 08:42:33;;;;;;;2.43;0.93;;;17.50;63.20;;;;;;10402746;28;20226;-70
2022/01/06 08:47:57;;;;;;;1.40;0.70;;;17.60;64.80;;;;;;10407355;28;20239;-70
2022/01/06 08:53:19;;;;;;;1.97;0.97;;;17.50;65.00;;;;;;10397175;28;20205;-70
2022/01/06 08:58:41;;;;;;;1.67;0.97;;;17.50;64.20;;;;;;10404855;28;20910;-69
2022/01/06 09:04:05;;;;;;;1.47;0.90;;;17.50;63.70;;;;;;10399226;28;20290;-70
2022/01/06 09:09:27;;;;;;;1.70;1.07;;;17.60;64.70;;;;;;10401242;28;21105;-70
2022/01/06 09:14:49;;;;;;;2.50;0.67;;;17.50;64.50;;;;;;10402737;28;20197;-71
2022/01/06 09:20:13;;;;;;;1.83;1.07;;;17.60;64.80;;;;;;10404624;28;20591;-69
2022/01/06 09:25:35;;;;;;;1.20;0.90;;;17.60;64.60;;;;;;10405931;28;20216;-72
2022/01/06 09:30:58;;;;;;;2.30;1.00;;;17.60;64.60;;;;;;10405098;28;20232;-71
2022/01/06 09:36:21;;;;;;;1.70;0.83;;;17.60;64.50;;;;;;10407116;28;20201;-70
2022/01/06 09:41:44;;;;;;;2.07;1.10;;;17.60;64.50;;;;;;10398173;28;20218;-70
2022/01/06 09:47:08;;;;;;;0.70;0.60;;;17.60;64.60;;;;;;10406191;28;20214;-70
2022/01/06 09:52:34;;;;;;;2.00;1.07;;;17.60;64.60;;;;;;10400387;28;20218;-70
2022/01/06 09:57:58;;;;;;;1.47;0.77;;;17.60;64.60;;;;;;10387357;28;20197;-70
2022/01/06 10:03:21;;;;;;;0.97;0.60;;;17.60;64.60;;;;;;10404476;28;20233;-70
2022/01/06 10:08:51;;;;;;;1.70;1.00;;;17.60;64.60;;;;;;10401252;28;20222;-70
2022/01/06 10:14:19;;;;;;;1.73;0.87;;;17.60;64.50;;;;;;10398704;28;20202;-70
2022/01/06 10:19:43;;;;;;;3.03;0.63;;;17.60;64.50;;;;;;10388545;28;20719;-70
2022/01/06 10:25:10;;;;;;;2.00;0.70;;;17.60;64.50;;;;;;10393053;28;20336;-70
2022/01/06 10:30:32;;;;;;;1.53;0.87;;;17.60;64.50;;;;;;10399119;28;20217;-70
2022/01/06 10:36:05;;;;;;;1.83;0.80;;;17.60;64.60;;;;;;10406375;28;20655;-70
2022/01/06 10:41:29;;;;;;;2.00;0.97;;;17.60;65.10;;;;;;10403724;28;20615;-70
2022/01/06 10:46:51;;;;;;;1.67;1.03;;;17.60;64.70;;;;;;10416648;28;20212;-70
2022/01/06 10:52:14;;;;;;;2.13;0.70;;;17.60;64.70;;;;;;10392428;28;20232;-71
2022/01/06 10:57:37;;;;;;;3.00;1.00;;;17.60;64.60;;;;;;10398642;28;20194;-70
2022/01/06 11:03:07;;;;;;;1.80;0.80;;;17.60;65.10;;;;;;10420856;22;20178;-67
2022/01/06 11:08:32;;;;;;;1.13;0.70;;;17.70;64.40;;;;;;10439258;28;20596;-66
2022/01/06 11:13:55;;;;;;;2.07;0.90;;;17.60;64.40;;;;;;10455171;28;20599;-66
2022/01/06 11:19:18;;;;;;;2.37;0.93;;;17.70;64.40;;;;;;10454062;28;20193;-66
2022/01/06 11:24:40;;;;;;;1.23;0.73;;;17.70;64.40;;;;;;10456708;28;20738;-66
2022/01/06 11:30:12;;;;;;;1.40;0.67;;;17.70;64.40;;;;;;10456047;28;20206;-66
2022/01/06 11:35:51;;;;;;;0.83;0.60;;;17.70;64.20;;;;;;10454454;28;20706;-66
2022/01/06 11:41:13;;;;;;;3.07;0.90;;;17.70;64.20;;;;;;10456281;28;20572;-66
2022/01/06 11:46:44;;;;;;;1.83;0.80;;;17.70;64.40;;;;;;10444828;28;20231;-66
2022/01/06 11:52:09;;;;;;;2.00;0.70;;;17.70;64.30;;;;;;10449866;28;20220;-67
2022/01/06 11:57:32;;;;;;;1.57;0.90;;;17.70;64.40;;;;;;10455551;28;20205;-66
2022/01/06 12:03:00;;;;;;;1.10;0.73;;;17.70;64.30;;;;;;10455637;28;20224;-66
2022/01/06 12:08:35;;;;;;;1.10;0.70;;;17.70;64.30;;;;;;10454844;28;20221;-66
2022/01/06 12:13:59;;;;;;;2.47;0.80;;;17.70;64.10;;;;;;10452852;28;20215;-65
2022/01/06 12:19:24;;;;;;;1.90;1.10;;;17.70;64.20;;;;;;10453461;28;20719;-65
2022/01/06 12:24:46;;;;;;;1.73;0.80;;;17.70;64.20;;;;;;10440418;28;20216;-66
2022/01/06 12:30:09;;;;;;;3.67;1.00;;;17.70;64.20;;;;;;10448947;28;20197;-65
2022/01/06 12:35:42;;;;;;;1.93;0.87;;;17.70;64.30;;;;;;10410986;22;20226;-69
2022/01/06 12:41:04;;;;;;;0.97;0.80;;;17.70;64.80;;;;;;10325875;28;20195;-67
2022/01/06 12:46:32;;;;;;;0.73;0.53;;;17.70;64.20;;;;;;10355674;28;20222;-68
2022/01/06 12:51:57;;;;;;;1.17;0.80;;;17.70;64.20;;;;;;10368751;28;20195;-67
2022/01/06 12:57:19;;;;;;;2.67;1.13;;;17.70;64.10;;;;;;10368201;28;20488;-64
2022/01/06 13:02:41;;;;;;;3.50;0.90;;;18.40;60.90;;;;;;10368251;28;20209;-64
2022/01/06 13:08:06;;;;;;;4.57;1.10;;;17.90;61.10;;;;;;10368131;28;20743;-65
2022/01/06 13:13:28;;;;;;;2.50;1.20;;;17.70;61.00;;;;;;10363911;28;20589;-64
2022/01/06 13:18:56;;;;;;;3.57;1.10;;;17.70;60.90;;;;;;10368513;28;20225;-64
2022/01/06 13:24:23;;;;;;;3.47;1.20;;;17.60;61.60;;;;;;10389027;28;20218;-66
2022/01/06 13:29:52;;;;;;;1.10;0.77;;;17.60;62.90;;;;;;10382749;28;20210;-66
2022/01/06 13:35:14;;;;;;;3.20;1.40;;;17.60;63.30;;;;;;10373478;28;20221;-66
2022/01/06 13:40:47;;;;;;;2.23;1.10;;;17.60;63.50;;;;;;10372615;28;20206;-67
2022/01/06 13:46:13;;;;;;;2.63;1.10;;;17.70;63.50;;;;;;10378135;28;20717;-67
2022/01/06 13:51:35;;;;;;;3.00;0.90;;;17.70;63.50;;;;;;10370895;28;20696;-67
2022/01/06 13:57:09;;;;;;;4.20;1.23;;;17.70;63.80;;;;;;10367494;28;20221;-67
2022/01/06 14:02:31;;;;;;;2.50;1.30;;;17.70;63.40;;;;;;10362075;28;21339;-68
2022/01/06 14:07:53;;;;;;;3.47;1.37;;;17.70;63.60;;;;;;10365465;28;20222;-68
2022/01/06 14:13:16;;;;;;;1.93;0.90;;;17.70;63.70;;;;;;10351389;28;20202;-65
2022/01/06 14:18:39;;;;;;;2.20;1.20;;;17.70;63.70;;;;;;10357832;28;20209;-64
2022/01/06 14:24:01;;;;;;;4.30;1.10;;;17.70;63.10;;;;;;10355184;28;20226;-65
2022/01/06 14:29:24;;;;;;;1.67;1.10;;;17.70;62.90;;;;;;10365162;28;20329;-64
2022/01/06 14:34:46;;;;;;;3.13;1.30;;;17.60;62.90;;;;;;10358617;28;20230;-64
2022/01/06 14:40:10;;;;;;;2.10;1.23;;;17.60;63.10;;;;;;10363231;28;21024;-65
2022/01/06 14:45:34;;;;;;;2.47;1.23;;;17.60;63.90;;;;;;10358857;28;20226;-65
2022/01/06 14:50:56;;;;;;;3.03;1.30;;;17.60;64.00;;;;;;10361042;28;20245;-66
2022/01/06 14:56:18;;;;;;;2.77;1.07;;;17.60;64.00;;;;;;10358153;28;20218;-65
2022/01/06 15:01:42;;;;;;;3.77;1.30;;;17.60;64.10;;;;;;10352830;28;20206;-65
2022/01/06 15:07:05;;;;;;;3.13;1.40;;;17.60;64.10;;;;;;10366373;28;20616;-65
2022/01/06 15:12:27;;;;;;;3.13;1.33;;;17.60;64.10;;;;;;10366252;28;20198;-65
2022/01/06 15:17:51;;;;;;;2.13;1.00;;;17.60;64.20;;;;;;10351363;28;20598;-65
2022/01/06 15:23:13;;;;;;;2.77;1.20;;;17.60;64.50;;;;;;10366645;28;20689;-65
2022/01/06 15:28:35;;;;;;;3.17;1.30;;;17.60;64.70;;;;;;10369474;28;20222;-65
2022/01/06 15:33:59;;;;;;;1.57;1.20;;;17.60;64.80;;;;;;10365411;28;20227;-65
2022/01/06 15:39:21;;;;;;;3.13;1.20;;;17.60;64.80;;;;;;10368082;28;20202;-65
2022/01/06 15:44:43;;;;;;;3.10;1.10;;;17.60;64.80;;;;;;10365959;28;20225;-65
2022/01/06 15:50:07;;;;;;;1.83;1.37;;;17.60;64.80;;;;;;10364877;28;20231;-65
2022/01/06 15:55:29;;;;;;;3.27;1.20;;;17.60;64.80;;;;;;10366087;28;20329;-65
2022/01/06 16:06:38;;;;;;;2.33;1.30;;;17.60;64.90;;;;;;10359469;28;20214;-65
2022/01/06 16:12:00;;;;;;;3.03;1.10;;;17.60;65.00;;;;;;10370471;28;20199;-66
2022/01/06 16:17:22;;;;;;;2.67;1.00;;;17.60;65.00;;;;;;10390066;28;20715;-65
2022/01/06 16:22:46;;;;;;;2.03;1.20;;;17.60;65.00;;;;;;10383412;28;20582;-65
2022/01/06 16:28:08;;;;;;;2.17;1.13;;;17.70;65.10;;;;;;10373684;28;20271;-65
2022/01/06 16:33:30;;;;;;;1.87;1.10;;;17.60;65.00;;;;;;10364672;28;20213;-65
2022/01/06 16:38:54;;;;;;;2.23;1.10;;;17.70;65.10;;;;;;10373211;28;20200;-65
2022/01/06 16:44:16;;;;;;;1.63;1.00;;;17.60;65.10;;;;;;10375738;28;20222;-65
2022/01/06 16:49:38;;;;;;;4.07;1.33;;;17.60;65.20;;;;;;10371319;28;20218;-70
2022/01/06 16:55:01;;;;;;;1.60;1.00;;;17.60;65.20;;;;;;10370187;28;20716;-69
2022/01/06 17:00:23;;;;;;;2.20;1.17;;;17.70;65.10;;;;;;10353535;28;20202;-70
2022/01/06 17:05:48;;;;;;;2.33;1.17;;;17.70;65.00;;;;;;10366120;28;20689;-69
2022/01/06 17:11:11;;;;;;;3.10;1.57;;;17.70;64.60;;;;;;10370196;28;20268;-70
2022/01/06 17:16:33;;;;;;;2.67;1.13;;;17.70;64.40;;;;;;10372967;28;20214;-69
2022/01/06 17:21:55;;;;;;;3.67;1.60;;;17.70;64.40;;;;;;10374899;28;20424;-70
2022/01/06 17:27:19;;;;;;;2.33;1.30;;;18.70;61.40;;;;;;10368132;28;20218;-69
2022/01/06 17:32:41;;;;;;;2.83;1.20;;;18.10;63.10;;;;;;10369228;28;20206;-69
2022/01/06 17:38:05;;;;;;;3.33;1.58;;;17.90;63.70;;;;;;10366385;28;20429;-68
2022/01/06 17:43:28;;;;;;;2.17;1.27;;;18.10;62.90;;;;;;10379230;28;20199;-68
2022/01/06 17:48:51;;;;;;;3.30;1.57;;;17.90;63.40;;;;;;10370208;28;20233;-69
2022/01/06 17:54:13;;;;;;;2.80;1.30;;;17.80;63.60;;;;;;10369186;28;20223;-69
2022/01/06 17:59:37;;;;;;;2.70;1.17;;;17.80;63.70;;;;;;10368496;28;20194;-68
2022/01/06 18:05:03;;;;;;;3.28;1.48;;;17.80;63.70;;;;;;10364797;28;20427;-68
2022/01/06 18:16:07;;;;;;;2.03;1.20;;;18.10;62.30;;;;;;10369158;28;20210;-68
2022/01/06 18:21:30;;;;;;;2.67;1.20;;;17.90;63.00;;;;;;10377187;28;20193;-67
2022/01/06 18:26:52;;;;;;;1.30;1.00;;;17.80;63.20;;;;;;10367883;28;20229;-63
2022/01/06 18:32:15;;;;;;;2.97;1.30;;;17.80;63.30;;;;;;10367465;28;20207;-63
2022/01/06 18:37:40;;;;;;;3.37;1.50;;;17.70;63.30;;;;;;10424423;23;20229;-70
2022/01/06 18:43:02;;;;;;;2.90;1.20;;;17.70;63.50;;;;;;10445968;28;20205;-70
2022/01/06 18:48:26;;;;;;;2.20;1.03;;;17.60;63.60;;;;;;10447308;28;20228;-70
2022/01/06 18:53:48;;;;;;;2.20;1.27;;;17.60;63.60;;;;;;10450339;28;20553;-70
2022/01/06 18:59:10;;;;;;;3.03;1.20;;;17.60;63.70;;;;;;10449907;28;20228;-70
2022/01/06 19:04:34;;;;;;;2.07;1.20;;;17.60;63.70;;;;;;10462457;28;20200;-71
2022/01/06 19:09:56;;;;;;;2.73;1.20;;;17.60;63.70;;;;;;10450250;28;20224;-67
2022/01/06 19:15:18;;;;;;;2.60;1.00;;;17.60;63.50;;;;;;10454292;28;20569;-69
2022/01/06 19:20:42;;;;;;;2.07;1.17;;;17.60;64.20;;;;;;10440384;28;20200;-70
2022/01/06 19:26:04;;;;;;;4.27;1.10;;;17.60;64.30;;;;;;10450250;28;20422;-70
2022/01/06 19:31:27;;;;;;;2.77;1.10;;;17.60;64.20;;;;;;10405270;28;20218;-71
2022/01/06 19:36:50;;;;;;;3.10;1.40;;;17.60;64.00;;;;;;10422077;28;20221;-71
2022/01/06 19:42:13;;;;;;;2.33;1.10;;;17.60;63.90;;;;;;10452455;28;20204;-70
2022/01/06 19:47:36;;;;;;;2.97;1.17;;;17.60;64.00;;;;;;10450340;28;20611;-70
2022/01/06 19:52:59;;;;;;;1.87;1.17;;;17.60;64.00;;;;;;10450474;28;20204;-70
2022/01/06 19:58:22;;;;;;;2.83;1.30;;;17.60;64.00;;;;;;10445880;28;20217;-69
2022/01/06 20:03:44;;;;;;;2.47;1.00;;;17.60;63.70;;;;;;10410476;28;20200;-70
2022/01/06 20:09:08;;;;;;;3.13;1.30;;;17.50;63.60;;;;;;10425888;28;20259;-70
2022/01/06 20:14:30;;;;;;;3.80;1.27;;;17.50;63.70;;;;;;10430273;28;20205;-69
2022/01/06 20:19:52;;;;;;;3.37;1.33;;;17.50;63.60;;;;;;10429800;28;20205;-69
2022/01/06 20:25:18;;;;;;;4.43;1.47;;;17.50;63.40;;;;;;10435507;28;20258;-66
2022/01/06 20:30:42;;;;;;;4.17;1.67;;;17.50;63.10;;;;;;10424264;28;20574;-68
2022/01/06 20:36:05;;;;;;;2.93;1.33;;;17.50;62.90;;;;;;10418075;28;20217;-69
2022/01/06 20:41:28;;;;;;;3.80;1.30;;;17.50;62.80;;;;;;10438716;28;20614;-68
2022/01/06 20:46:55;;;;;;;2.13;1.30;;;17.60;62.90;;;;;;10436095;28;20773;-68
2022/01/06 20:52:17;;;;;;;2.73;1.20;;;17.50;62.80;;;;;;10432718;28;20224;-70
2022/01/06 20:57:41;;;;;;;2.90;1.37;;;17.50;62.80;;;;;;10438596;28;20217;-69
2022/01/06 21:03:04;;;;;;;5.20;1.73;;;17.50;62.70;;;;;;10444556;28;20209;-68
2022/01/06 21:08:26;;;;;;;4.00;1.67;;;17.50;62.80;;;;;;10447453;28;20225;-69
2022/01/06 21:13:50;;;;;;;3.57;1.63;;;17.50;62.70;;;;;;10433242;28;20202;-71
2022/01/06 21:19:12;;;;;;;3.07;1.50;;;17.50;62.70;;;;;;10437081;28;20218;-68
2022/01/06 21:24:35;;;;;;;2.80;1.40;;;17.50;62.80;;;;;;10435036;28;20201;-70
2022/01/06 21:29:58;;;;;;;4.70;1.80;;;17.50;62.80;;;;;;10440918;28;20220;-68
2022/01/06 21:35:20;;;;;;;3.63;1.50;;;17.50;62.80;;;;;;10430476;28;20296;-68
2022/01/06 21:40:42;;;;;;;3.73;1.60;;;17.50;62.90;;;;;;10438613;28;20197;-68
2022/01/06 21:46:06;;;;;;;4.07;1.40;;;17.50;62.80;;;;;;10451753;28;20225;-68
2022/01/06 21:51:29;;;;;;;2.50;1.70;;;17.40;62.80;;;;;;10452370;28;20232;-66
2022/01/06 21:56:52;;;;;;;4.40;1.97;;;17.50;62.80;;;;;;10434375;28;20244;-69
2022/01/06 22:02:15;;;;;;;3.20;1.67;;;17.40;62.90;;;;;;10451194;28;20219;-68
2022/01/06 22:07:38;;;;;;;2.57;1.73;;;17.40;62.80;;;;;;10450035;28;20216;-69
2022/01/06 22:13:00;;;;;;;3.23;1.73;;;17.40;62.80;;;;;;10441877;28;20688;-68
2022/01/06 22:18:24;;;;;;;7.00;2.13;;;17.40;62.80;;;;;;10450483;28;20209;-68
2022/01/06 22:23:46;;;;;;;2.97;1.63;;;17.40;62.80;;;;;;10450772;28;20580;-69
2022/01/06 22:29:09;;;;;;;2.93;1.73;;;17.40;62.80;;;;;;10411609;28;20221;-70
2022/01/06 22:34:32;;;;;;;3.80;1.80;;;17.40;62.80;;;;;;10423388;28;20193;-68
2022/01/06 22:39:54;;;;;;;3.17;1.60;;;17.40;62.80;;;;;;10438102;28;20185;-68
2022/01/06 22:45:17;;;;;;;5.43;1.90;;;17.40;62.80;;;;;;10451368;28;20217;-66
2022/01/06 22:50:41;;;;;;;2.43;1.47;;;17.40;62.80;;;;;;10410084;28;20230;-68
2022/01/06 22:56:03;;;;;;;4.73;1.80;;;17.40;62.90;;;;;;10449530;28;20220;-68
2022/01/06 23:01:25;;;;;;;4.90;2.10;;;17.40;62.80;;;;;;10448096;28;20197;-68
2022/01/06 23:06:48;;;;;;;2.47;1.63;;;17.40;62.80;;;;;;10438453;28;20228;-68
2022/01/06 23:12:11;;;;;;;4.93;1.80;;;17.40;62.90;;;;;;10458730;28;20287;-68
2022/01/06 23:17:33;;;;;;;3.80;1.77;;;17.40;62.80;;;;;;10458179;28;20213;-69
2022/01/06 23:22:58;;;;;;;2.47;1.47;;;17.40;62.80;;;;;;10459687;28;20208;-67
2022/01/06 23:28:20;;;;;;;4.13;2.00;;;17.40;62.80;;;;;;10453408;28;20267;-68
2022/01/06 23:33:42;;;;;;;3.93;1.97;;;17.40;62.80;;;;;;10459258;28;20672;-68
2022/01/06 23:39:07;;;;;;;2.67;1.60;;;17.40;62.80;;;;;;10454429;28;20568;-67
2022/01/06 23:44:30;;;;;;;3.93;1.90;;;17.40;62.90;;;;;;10456917;28;20201;-66
2022/01/06 23:49:52;;;;;;;3.53;1.87;;;17.40;62.80;;;;;;10455449;28;20213;-68
2022/01/06 23:55:17;;;;;;;4.63;1.90;;;17.40;62.80;;;;;;10456224;28;20691;-68
